createdAt,value
2022-10-26T00:00:31.922Z,954.3562012
2022-10-26T00:01:32.555Z,954.3105469
2022-10-26T00:02:32.969Z,954.2340698
2022-10-26T00:03:33.435Z,954.1590576
2022-10-26T00:04:33.881Z,954.0728149
2022-10-26T00:05:34.428Z,953.977356
2022-10-26T00:06:34.941Z,953.9082642
2022-10-26T00:07:35.404Z,953.9095459
2022-10-26T00:08:35.914Z,953.9675903
2022-10-26T00:09:36.360Z,954.0131836
2022-10-26T00:10:37.618Z,954.0046997
2022-10-26T00:11:38.224Z,954.0505981
2022-10-26T00:12:38.634Z,954.0806274
2022-10-26T00:13:39.428Z,954.1049805
2022-10-26T00:14:40.210Z,954.1379395
2022-10-26T00:15:40.802Z,954.1793213
2022-10-26T00:16:41.213Z,954.2053223
2022-10-26T00:17:41.711Z,954.2503052
2022-10-26T00:18:42.159Z,954.2600708
2022-10-26T00:19:42.693Z,954.2868042
2022-10-26T00:20:44.084Z,954.4181519
2022-10-26T00:21:45.444Z,954.5636597
2022-10-26T00:22:46.013Z,954.701416
2022-10-26T00:23:46.608Z,954.7450562
2022-10-26T00:24:47.147Z,954.8395386
2022-10-26T00:25:47.818Z,954.8457031
2022-10-26T00:26:48.346Z,954.7773438
2022-10-26T00:27:49.026Z,954.6834106
2022-10-26T00:28:49.255Z,954.7557983
2022-10-26T00:29:49.821Z,954.470459
2022-10-26T00:31:22.323Z,954.2988281
2022-10-26T00:32:22.865Z,954.3596802
2022-10-26T00:33:23.315Z,954.5003662
2022-10-26T00:34:23.727Z,954.6573486
2022-10-26T00:35:41.100Z,954.8114014
2022-10-26T00:36:24.603Z,955.0036011
2022-10-26T00:37:25.049Z,955.1182861
2022-10-26T00:38:25.526Z,955.100647
2022-10-26T00:39:26.040Z,954.9442749
2022-10-26T00:40:26.440Z,955.1322632
2022-10-26T00:41:26.858Z,955.37854
2022-10-26T00:42:27.333Z,955.3590088
2022-10-26T00:43:27.796Z,955.2720337
2022-10-26T00:44:28.219Z,955.4241333
2022-10-26T00:45:28.704Z,955.5234375
2022-10-26T00:46:29.706Z,955.4924927
2022-10-26T00:47:30.207Z,955.2207642
2022-10-26T00:48:30.656Z,954.9495239
2022-10-26T00:49:31.098Z,954.852417
2022-10-26T00:50:32.417Z,954.9003296
2022-10-26T00:51:32.980Z,954.769043
2022-10-26T00:52:33.270Z,954.6628418
2022-10-26T00:53:33.828Z,954.5625
2022-10-26T00:54:34.314Z,954.508728
2022-10-26T00:55:34.738Z,954.4182739
2022-10-26T00:56:35.936Z,954.4107666
2022-10-26T00:58:36.758Z,954.7103271
2022-10-26T00:59:37.182Z,954.8389893
2022-10-26T01:00:37.658Z,954.8731079
2022-10-26T01:01:38.988Z,954.7226563
2022-10-26T01:02:39.358Z,954.6601563
2022-10-26T01:03:39.837Z,954.6928101
2022-10-26T01:04:40.201Z,954.6537476
2022-10-26T01:05:40.642Z,954.7348633
2022-10-26T01:06:41.111Z,954.6870117
2022-10-26T01:07:41.547Z,954.7097778
2022-10-26T01:08:42.680Z,954.7052612
2022-10-26T01:09:43.133Z,954.8456421
2022-10-26T01:10:44.434Z,954.8886108
2022-10-26T01:11:44.971Z,954.8169556
2022-10-26T01:12:45.330Z,954.8521729
2022-10-26T01:13:45.750Z,954.8596802
2022-10-26T01:14:46.151Z,954.8753052
2022-10-26T01:15:47.190Z,954.812439
2022-10-26T01:16:47.651Z,954.7694702
2022-10-26T01:17:48.501Z,954.8078613
2022-10-26T01:18:48.441Z,954.9152832
2022-10-26T01:19:48.899Z,955.0505981
2022-10-26T01:20:50.504Z,955.1915894
2022-10-26T01:22:21.236Z,955.0454102
2022-10-26T01:23:21.631Z,955.1560669
2022-10-26T01:24:22.067Z,955.2776489
2022-10-26T01:25:22.461Z,955.2704468
2022-10-26T01:26:22.914Z,955.439209
2022-10-26T01:27:23.365Z,955.6353149
2022-10-26T01:28:23.772Z,955.8464355
2022-10-26T01:29:24.908Z,955.9220581
2022-10-26T01:30:26.184Z,955.930481
2022-10-26T01:31:26.630Z,955.9425659
2022-10-26T01:32:27.065Z,955.928894
2022-10-26T01:33:27.452Z,955.9979858
2022-10-26T01:34:27.878Z,956.0924072
2022-10-26T01:35:28.285Z,956.267334
2022-10-26T01:36:28.741Z,956.3796997
2022-10-26T01:37:29.138Z,956.4145508
2022-10-26T01:38:29.529Z,956.3842163
2022-10-26T01:39:29.970Z,956.2828369
2022-10-26T01:40:30.361Z,956.2475586
2022-10-26T01:41:31.435Z,956.2009277
2022-10-26T01:42:31.883Z,956.2293091
2022-10-26T01:43:32.277Z,956.2168579
2022-10-26T01:44:32.724Z,956.225647
2022-10-26T01:45:33.174Z,956.2442017
2022-10-26T01:46:33.635Z,956.3109131
2022-10-26T01:47:34.118Z,956.366272
2022-10-26T01:48:34.510Z,956.3239136
2022-10-26T01:49:34.931Z,956.2723999
2022-10-26T01:50:36.188Z,956.3146973
2022-10-26T01:51:36.601Z,956.4179688
2022-10-26T01:52:37.067Z,956.3615723
2022-10-26T01:53:37.468Z,956.1814575
2022-10-26T01:55:38.329Z,955.9191895
2022-10-26T01:56:39.693Z,955.9788818
2022-10-26T01:57:40.210Z,955.9854126
2022-10-26T01:58:40.685Z,955.9902954
2022-10-26T01:59:41.888Z,956.034668
2022-10-26T02:00:42.326Z,956.2073364
2022-10-26T02:01:43.455Z,956.3878174
2022-10-26T02:02:43.826Z,956.4589233
2022-10-26T02:03:44.365Z,956.5462646
2022-10-26T02:04:44.699Z,956.4837646
2022-10-26T02:05:45.153Z,956.4689331
2022-10-26T02:06:46.401Z,956.4676514
2022-10-26T02:07:47.108Z,956.5435791
2022-10-26T02:08:47.363Z,956.5358887
2022-10-26T02:09:47.790Z,956.5231934
2022-10-26T02:10:49.238Z,956.2955322
2022-10-26T02:12:20.115Z,956.194519
2022-10-26T02:13:20.775Z,956.0825195
2022-10-26T02:14:21.221Z,956.034668
2022-10-26T02:15:21.730Z,956.0959473
2022-10-26T02:16:22.187Z,956.2425537
2022-10-26T02:17:22.613Z,956.2908325
2022-10-26T02:18:23.105Z,956.3482056
2022-10-26T02:19:23.506Z,956.3590698
2022-10-26T02:20:23.988Z,956.3085938
2022-10-26T02:21:25.386Z,956.2623291
2022-10-26T02:22:26.705Z,956.2731323
2022-10-26T02:23:27.183Z,956.2896729
2022-10-26T02:24:27.631Z,956.3262329
2022-10-26T02:25:28.112Z,956.2653198
2022-10-26T02:26:28.543Z,956.2460938
2022-10-26T02:27:28.976Z,956.2265625
2022-10-26T02:28:29.433Z,956.1708374
2022-10-26T02:29:29.910Z,956.1246338
2022-10-26T02:30:30.401Z,956.1027832
2022-10-26T02:31:31.460Z,956.081543
2022-10-26T02:32:31.905Z,956.1229858
2022-10-26T02:33:32.396Z,956.0914307
2022-10-26T02:34:32.815Z,956.0331421
2022-10-26T02:35:33.355Z,956.007019
2022-10-26T02:36:34.441Z,955.954895
2022-10-26T02:37:34.852Z,955.8989258
2022-10-26T02:38:35.305Z,955.8728027
2022-10-26T02:39:35.739Z,955.8989258
2022-10-26T02:40:36.192Z,955.9047852
2022-10-26T02:41:37.198Z,955.925293
2022-10-26T02:42:37.653Z,955.9216919
2022-10-26T02:43:38.088Z,955.9787598
2022-10-26T02:44:38.499Z,956.0543823
2022-10-26T02:45:39.030Z,956.1228027
2022-10-26T02:46:39.676Z,956.0396729
2022-10-26T02:47:40.206Z,955.9222412
2022-10-26T02:48:41.443Z,955.8577881
2022-10-26T02:49:41.948Z,955.6900024
2022-10-26T02:50:42.439Z,955.5830688
2022-10-26T02:51:43.490Z,955.3849487
2022-10-26T02:52:43.909Z,955.2333374
2022-10-26T02:53:44.386Z,955.1503296
2022-10-26T02:54:44.815Z,955.0873413
2022-10-26T02:55:45.263Z,955.0362549
2022-10-26T02:56:45.736Z,954.9893188
2022-10-26T02:57:46.243Z,954.9042358
2022-10-26T02:58:46.724Z,954.7435913
2022-10-26T02:59:47.170Z,954.6904907
2022-10-26T03:00:47.622Z,954.7113037
2022-10-26T03:02:19.549Z,954.7103271
2022-10-26T03:03:20.019Z,954.7703247
2022-10-26T03:04:20.799Z,954.7589111
2022-10-26T03:05:21.205Z,954.772583
2022-10-26T03:06:21.686Z,954.8181152
2022-10-26T03:07:22.158Z,954.8757935
2022-10-26T03:08:22.668Z,954.9872437
2022-10-26T03:09:25.459Z,955.1016235
2022-10-26T03:10:23.535Z,955.135498
2022-10-26T03:11:23.988Z,955.1762695
2022-10-26T03:12:25.207Z,955.3179932
2022-10-26T03:13:25.684Z,955.2957764
2022-10-26T03:14:26.145Z,955.2306519
2022-10-26T03:15:26.576Z,955.1628418
2022-10-26T03:16:27.030Z,955.1138916
2022-10-26T03:17:27.453Z,955.116272
2022-10-26T03:18:28.729Z,955.1950684
2022-10-26T03:19:29.196Z,955.2921753
2022-10-26T03:20:29.595Z,955.2651367
2022-10-26T03:21:30.704Z,955.282959
2022-10-26T03:22:31.158Z,955.2960205
2022-10-26T03:23:31.647Z,955.2781372
2022-10-26T03:24:32.120Z,955.31073
2022-10-26T03:25:32.504Z,955.3800659
2022-10-26T03:26:33.927Z,955.3393555
2022-10-26T03:27:34.393Z,955.383728
2022-10-26T03:28:34.849Z,955.4168701
2022-10-26T03:29:35.490Z,955.4335938
2022-10-26T03:30:35.738Z,955.4639282
2022-10-26T03:31:36.707Z,955.590332
2022-10-26T03:32:37.193Z,955.6174316
2022-10-26T03:34:38.166Z,955.772522
2022-10-26T03:35:38.601Z,955.8283081
2022-10-26T03:36:39.707Z,955.9064941
2022-10-26T03:37:40.211Z,955.9782104
2022-10-26T03:38:40.672Z,956.0524902
2022-10-26T03:39:41.716Z,956.1193237
2022-10-26T03:40:42.166Z,956.1242065
2022-10-26T03:41:43.558Z,956.1469727
2022-10-26T03:42:44.719Z,956.1970825
2022-10-26T03:43:45.139Z,956.2410889
2022-10-26T03:44:45.640Z,956.3078613
2022-10-26T03:45:46.069Z,956.310791
2022-10-26T03:46:46.512Z,956.3378296
2022-10-26T03:47:46.973Z,956.3928223
2022-10-26T03:48:47.463Z,956.4579468
2022-10-26T03:49:47.962Z,956.4396973
2022-10-26T03:51:19.714Z,956.4380493
2022-10-26T03:52:20.703Z,956.5038452
2022-10-26T03:53:21.162Z,956.5217285
2022-10-26T03:54:21.618Z,956.4996338
2022-10-26T03:55:22.143Z,956.5070801
2022-10-26T03:56:22.648Z,956.5038452
2022-10-26T03:57:23.099Z,956.4478149
2022-10-26T03:58:23.573Z,956.4021606
2022-10-26T03:59:23.990Z,956.4660645
2022-10-26T04:00:24.461Z,956.4597168
2022-10-26T04:01:25.773Z,956.5258789
2022-10-26T04:02:26.157Z,956.5708008
2022-10-26T04:03:26.619Z,956.5839233
2022-10-26T04:04:27.055Z,956.5793457
2022-10-26T04:05:28.218Z,956.560791
2022-10-26T04:06:28.639Z,956.5298462
2022-10-26T04:07:29.088Z,956.4682617
2022-10-26T04:08:29.611Z,956.3853149
2022-10-26T04:09:30.053Z,956.2982788
2022-10-26T04:10:30.545Z,956.2382813
2022-10-26T04:11:31.708Z,956.2125854
2022-10-26T04:12:32.153Z,956.1875
2022-10-26T04:13:32.631Z,956.1227417
2022-10-26T04:14:33.166Z,956.0011597
2022-10-26T04:15:33.715Z,955.9207153
2022-10-26T04:16:34.269Z,955.8613892
2022-10-26T04:17:34.794Z,955.7636108
2022-10-26T04:18:35.259Z,955.7293701
2022-10-26T04:19:35.785Z,955.7871094
2022-10-26T04:20:36.397Z,955.8548584
2022-10-26T04:21:37.744Z,955.956543
2022-10-26T04:22:38.275Z,956.0168457
2022-10-26T04:23:38.801Z,956.1156006
2022-10-26T04:24:39.344Z,956.1367188
2022-10-26T04:25:39.959Z,956.1032104
2022-10-26T04:26:40.339Z,955.9536133
2022-10-26T04:27:40.846Z,955.7593994
2022-10-26T04:28:41.379Z,955.7301025
2022-10-26T04:29:41.835Z,955.8027344
2022-10-26T04:30:42.298Z,955.8656006
2022-10-26T04:32:44.213Z,955.9226685
2022-10-26T04:33:44.705Z,955.9324951
2022-10-26T04:34:45.181Z,955.9400024
2022-10-26T04:35:45.662Z,955.9406128
2022-10-26T04:36:46.200Z,955.9230347
2022-10-26T04:37:46.703Z,955.8927612
2022-10-26T04:38:47.211Z,955.9120483
2022-10-26T04:40:18.352Z,955.9048462
2022-10-26T04:41:18.858Z,955.920166
2022-10-26T04:42:19.949Z,955.953125
2022-10-26T04:43:20.823Z,955.9514771
2022-10-26T04:44:21.401Z,955.9710083
2022-10-26T04:45:21.868Z,956.0567017
2022-10-26T04:46:22.362Z,956.177002
2022-10-26T04:47:22.793Z,956.2487793
2022-10-26T04:49:23.823Z,956.3181152
2022-10-26T04:50:27.546Z,956.217041
2022-10-26T04:51:25.471Z,956.1590576
2022-10-26T04:52:26.449Z,956.1154175
2022-10-26T04:53:26.957Z,956.1101685
2022-10-26T04:54:27.454Z,956.1329956
2022-10-26T04:55:27.959Z,956.1134644
2022-10-26T04:56:28.469Z,956.0733643
2022-10-26T04:57:28.906Z,956.0678101
2022-10-26T04:58:29.360Z,955.9680176
2022-10-26T04:59:29.861Z,955.9109497
2022-10-26T05:00:30.434Z,955.8643799
2022-10-26T05:01:31.045Z,955.8780518
2022-10-26T05:02:32.061Z,955.9664307
2022-10-26T05:03:32.398Z,956.1016235
2022-10-26T05:04:32.845Z,956.2189941
2022-10-26T05:05:33.416Z,956.1942139
2022-10-26T05:06:33.936Z,956.2196045
2022-10-26T05:07:34.390Z,956.2391968
2022-10-26T05:08:34.896Z,956.2561035
2022-10-26T05:09:35.335Z,956.258728
2022-10-26T05:10:36.740Z,956.2636108
2022-10-26T05:11:37.261Z,956.2766113
2022-10-26T05:12:38.461Z,956.2893066
2022-10-26T05:13:38.941Z,956.3131104
2022-10-26T05:14:39.415Z,956.3756104
2022-10-26T05:15:39.959Z,956.3579712
2022-10-26T05:16:40.609Z,956.4146729
2022-10-26T05:17:41.065Z,956.3722534
2022-10-26T05:18:41.566Z,956.355957
2022-10-26T05:19:42.033Z,956.4138794
2022-10-26T05:20:42.480Z,956.3833008
2022-10-26T05:21:43.040Z,956.3637695
2022-10-26T05:22:44.497Z,956.3203125
2022-10-26T05:23:44.970Z,956.2984619
2022-10-26T05:24:45.391Z,956.2470093
2022-10-26T05:25:45.869Z,956.184082
2022-10-26T05:26:46.378Z,956.1504517
2022-10-26T05:27:47.316Z,956.2201538
2022-10-26T05:29:18.725Z,956.2875977
2022-10-26T05:30:19.160Z,956.3262329
2022-10-26T05:31:19.563Z,956.3519287
2022-10-26T05:32:20.722Z,956.3998413
2022-10-26T05:33:21.290Z,956.4623413
2022-10-26T05:34:21.813Z,956.470459
2022-10-26T05:35:22.349Z,956.5124512
2022-10-26T05:36:22.805Z,956.5186157
2022-10-26T05:37:23.314Z,956.4973145
2022-10-26T05:38:23.955Z,956.5539551
2022-10-26T05:39:24.339Z,956.5431519
2022-10-26T05:40:24.910Z,956.513916
2022-10-26T05:41:25.393Z,956.5317383
2022-10-26T05:42:26.760Z,956.5145264
2022-10-26T05:43:27.180Z,956.4887695
2022-10-26T05:44:27.724Z,956.467041
2022-10-26T05:45:28.280Z,956.4321899
2022-10-26T05:46:28.762Z,956.3869629
2022-10-26T05:47:29.315Z,956.395752
2022-10-26T05:48:29.758Z,956.4068604
2022-10-26T05:49:30.356Z,956.434082
2022-10-26T05:50:30.895Z,956.4692383
2022-10-26T05:51:31.449Z,956.4223633
2022-10-26T05:52:32.735Z,956.3979492
2022-10-26T05:53:33.184Z,956.3908691
2022-10-26T05:54:33.688Z,956.3456421
2022-10-26T05:55:34.285Z,956.3117065
2022-10-26T05:56:34.781Z,956.3339844
2022-10-26T05:57:35.317Z,956.296875
2022-10-26T05:58:35.738Z,956.3109131
2022-10-26T05:59:36.189Z,956.3435059
2022-10-26T06:00:36.671Z,956.3809204
2022-10-26T06:01:37.293Z,956.4156494
2022-10-26T06:02:38.287Z,956.4833374
2022-10-26T06:03:38.768Z,956.4537354
2022-10-26T06:04:39.256Z,956.4417114
2022-10-26T06:05:39.706Z,956.4961548
2022-10-26T06:06:41.277Z,956.6350098
2022-10-26T06:07:41.783Z,956.6766968
2022-10-26T06:08:42.270Z,956.6898193
2022-10-26T06:09:42.724Z,956.6817017
2022-10-26T06:10:43.197Z,956.689209
2022-10-26T06:11:43.693Z,956.6917725
2022-10-26T06:12:44.751Z,956.7218018
2022-10-26T06:13:45.225Z,956.7286987
2022-10-26T06:14:45.727Z,956.7636108
2022-10-26T06:15:46.161Z,956.8200073
2022-10-26T06:17:17.034Z,956.7990723
2022-10-26T06:18:17.600Z,956.8154907
2022-10-26T06:19:18.055Z,956.7773438
2022-10-26T06:20:18.545Z,956.7750244
2022-10-26T06:21:19.005Z,956.7750854
2022-10-26T06:22:19.442Z,956.7109375
2022-10-26T06:23:20.558Z,956.7190552
2022-10-26T06:24:21.092Z,956.7207031
2022-10-26T06:25:21.596Z,956.7390137
2022-10-26T06:26:22.030Z,956.7634277
2022-10-26T06:27:22.478Z,956.7536621
2022-10-26T06:28:23.534Z,956.7879028
2022-10-26T06:29:23.967Z,956.8811035
2022-10-26T06:30:24.448Z,956.8909302
2022-10-26T06:31:24.908Z,956.9691162
2022-10-26T06:32:26.242Z,956.9698486
2022-10-26T06:33:29.772Z,956.9763184
2022-10-26T06:34:27.738Z,956.9682007
2022-10-26T06:35:28.244Z,956.9561157
2022-10-26T06:36:29.242Z,956.9534912
2022-10-26T06:37:29.693Z,956.9209595
2022-10-26T06:38:30.202Z,956.9085083
2022-10-26T06:39:30.680Z,956.9126587
2022-10-26T06:40:31.147Z,956.9140015
2022-10-26T06:41:31.643Z,956.9400635
2022-10-26T06:42:32.734Z,956.9944458
2022-10-26T06:43:33.173Z,957.0352173
2022-10-26T06:44:33.600Z,957.0857544
2022-10-26T06:45:34.132Z,957.111084
2022-10-26T06:46:34.630Z,957.1107788
2022-10-26T06:47:35.183Z,957.1296997
2022-10-26T06:48:35.682Z,957.1420898
2022-10-26T06:49:36.104Z,957.1323242
2022-10-26T06:50:36.587Z,957.1020508
2022-10-26T06:51:37.116Z,957.1242065
2022-10-26T06:52:38.287Z,957.130127
2022-10-26T06:54:39.304Z,957.1239624
2022-10-26T06:55:39.732Z,957.140625
2022-10-26T06:56:40.268Z,957.1315918
2022-10-26T06:57:40.755Z,957.1699829
2022-10-26T06:58:42.102Z,957.1439209
2022-10-26T06:59:42.581Z,957.1400757
2022-10-26T07:00:43.116Z,957.1785889
2022-10-26T07:01:43.747Z,957.1730347
2022-10-26T07:02:45.119Z,957.1730957
2022-10-26T07:03:45.695Z,957.1489868
2022-10-26T07:05:17.233Z,957.180603
2022-10-26T07:07:18.258Z,957.2168579
2022-10-26T07:08:18.737Z,957.2619019
2022-10-26T07:09:19.265Z,957.2211914
2022-10-26T07:10:19.745Z,957.1921997
2022-10-26T07:11:20.241Z,957.2388306
2022-10-26T07:12:20.770Z,957.3023682
2022-10-26T07:13:22.069Z,957.3252563
2022-10-26T07:14:22.647Z,957.333374
2022-10-26T07:15:23.170Z,957.3405762
2022-10-26T07:16:23.685Z,957.3105469
2022-10-26T07:17:24.163Z,957.3245239
2022-10-26T07:18:24.620Z,957.3236084
2022-10-26T07:19:25.184Z,957.3800049
2022-10-26T07:20:25.684Z,957.3823242
2022-10-26T07:21:26.186Z,957.4273682
2022-10-26T07:22:26.703Z,957.4556274
2022-10-26T07:23:28.004Z,957.5452881
2022-10-26T07:24:28.558Z,957.4534302
2022-10-26T07:25:29.108Z,957.4794312
2022-10-26T07:26:29.632Z,957.5081177
2022-10-26T07:27:30.091Z,957.5125122
2022-10-26T07:28:30.593Z,957.4978027
2022-10-26T07:29:31.125Z,957.5222168
2022-10-26T07:30:31.639Z,957.5385742
2022-10-26T07:31:33.018Z,957.5574951
2022-10-26T07:32:33.524Z,957.59375
2022-10-26T07:33:38.038Z,957.5808105
2022-10-26T07:34:35.522Z,957.5915527
2022-10-26T07:35:36.087Z,957.5918579
2022-10-26T07:36:37.267Z,957.6130981
2022-10-26T07:37:37.846Z,957.6587524
2022-10-26T07:38:38.282Z,957.6760864
2022-10-26T07:39:38.818Z,957.6815796
2022-10-26T07:40:39.318Z,957.6620483
2022-10-26T07:41:39.806Z,957.6950073
2022-10-26T07:42:43.036Z,957.7103271
2022-10-26T07:43:42.017Z,957.7249756
2022-10-26T07:44:42.576Z,957.6950073
2022-10-26T07:45:43.061Z,957.7351685
2022-10-26T07:46:43.567Z,957.746582
2022-10-26T07:47:44.070Z,957.7400513
2022-10-26T07:49:45.463Z,957.8203125
2022-10-26T07:51:16.093Z,957.8364258
2022-10-26T07:52:16.577Z,957.8591919
2022-10-26T07:53:17.805Z,957.8456421
2022-10-26T07:54:18.253Z,957.8978271
2022-10-26T07:55:18.709Z,957.9053345
2022-10-26T07:56:19.193Z,957.9291382
2022-10-26T07:57:19.698Z,957.852478
2022-10-26T07:58:20.178Z,957.9171143
2022-10-26T07:59:20.779Z,957.920166
2022-10-26T08:00:21.290Z,957.9119263
2022-10-26T08:01:21.893Z,957.9364624
2022-10-26T08:02:22.255Z,957.9717407
2022-10-26T08:03:23.775Z,957.9622803
2022-10-26T08:04:24.383Z,957.9606323
2022-10-26T08:05:24.973Z,957.986084
2022-10-26T08:06:25.363Z,957.96698
2022-10-26T08:07:25.839Z,958.0181885
2022-10-26T08:08:26.332Z,957.9996338
2022-10-26T08:09:26.838Z,958.0309448
2022-10-26T08:10:27.391Z,957.9709473
2022-10-26T08:11:28.761Z,957.9798584
2022-10-26T08:12:29.255Z,958.0170288
2022-10-26T08:13:30.762Z,958.0203247
2022-10-26T08:14:31.250Z,958.0327148
2022-10-26T08:15:31.775Z,958.0853271
2022-10-26T08:16:32.318Z,958.0999756
2022-10-26T08:17:32.788Z,958.1026611
2022-10-26T08:18:33.432Z,958.1362305
2022-10-26T08:19:33.934Z,958.1324463
2022-10-26T08:20:34.521Z,958.1082764
2022-10-26T08:21:39.784Z,958.1154785
2022-10-26T08:22:36.276Z,958.0822144
2022-10-26T08:23:37.267Z,958.1331177
2022-10-26T08:24:37.732Z,958.1185303
2022-10-26T08:25:38.270Z,958.1253662
2022-10-26T08:26:38.767Z,958.1681519
2022-10-26T08:27:39.320Z,958.1495361
2022-10-26T08:28:39.827Z,958.147644
2022-10-26T08:29:40.223Z,958.1448364
2022-10-26T08:30:40.686Z,958.1732788
2022-10-26T08:31:42.078Z,958.1540527
2022-10-26T08:32:42.666Z,958.1397705
2022-10-26T08:33:45.068Z,958.1172485
2022-10-26T08:34:44.440Z,958.100647
2022-10-26T08:36:15.508Z,958.1062622
2022-10-26T08:37:17.247Z,958.1212769
2022-10-26T08:38:17.699Z,958.0765381
2022-10-26T08:39:18.169Z,958.1096191
2022-10-26T08:40:18.687Z,958.0985107
2022-10-26T08:41:19.156Z,958.1148682
2022-10-26T08:42:19.791Z,958.1462402
2022-10-26T08:43:21.321Z,958.1135864
2022-10-26T08:44:21.925Z,958.1151733
2022-10-26T08:45:27.577Z,958.1286011
2022-10-26T08:46:22.858Z,958.1138916
2022-10-26T08:47:23.721Z,958.0946655
2022-10-26T08:48:23.952Z,958.1445923
2022-10-26T08:49:24.517Z,958.1096802
2022-10-26T08:50:24.982Z,958.142334
2022-10-26T08:51:25.500Z,958.131897
2022-10-26T08:52:26.750Z,958.1551514
2022-10-26T08:53:27.790Z,958.1821899
2022-10-26T08:54:28.298Z,958.1838989
2022-10-26T08:55:28.848Z,958.197998
2022-10-26T08:56:30.309Z,958.1662598
2022-10-26T08:57:30.873Z,958.1998291
2022-10-26T08:58:31.322Z,958.1959229
2022-10-26T08:59:31.779Z,958.2371826
2022-10-26T09:00:32.261Z,958.2159424
2022-10-26T09:01:33.402Z,958.230957
2022-10-26T09:02:33.740Z,958.2542114
2022-10-26T09:03:34.750Z,958.2518921
2022-10-26T09:04:35.275Z,958.2642822
2022-10-26T09:05:36.895Z,958.258728
2022-10-26T09:06:36.217Z,958.2564087
2022-10-26T09:07:37.494Z,958.2528687
2022-10-26T09:08:37.943Z,958.2734375
2022-10-26T09:09:38.449Z,958.3178101
2022-10-26T09:10:38.950Z,958.2404785
2022-10-26T09:11:39.369Z,958.2538452
2022-10-26T09:12:39.896Z,958.2525024
2022-10-26T09:13:40.341Z,958.2084351
2022-10-26T09:14:40.836Z,958.2407837
2022-10-26T09:15:41.987Z,958.2385254
2022-10-26T09:16:42.455Z,958.2231445
2022-10-26T09:17:42.948Z,958.2512207
2022-10-26T09:18:43.488Z,958.2374878
2022-10-26T09:19:44.457Z,958.2528076
2022-10-26T09:21:15.200Z,958.2746582
2022-10-26T09:22:16.252Z,958.276001
2022-10-26T09:23:16.869Z,958.2453003
2022-10-26T09:24:17.172Z,958.2207642
2022-10-26T09:25:17.654Z,958.274353
2022-10-26T09:26:18.145Z,958.1878052
2022-10-26T09:27:18.626Z,958.2142334
2022-10-26T09:28:19.054Z,958.2331543
2022-10-26T09:29:19.476Z,958.2366943
2022-10-26T09:30:19.971Z,958.201416
2022-10-26T09:31:20.693Z,958.2357788
2022-10-26T09:32:22.140Z,958.2451782
2022-10-26T09:33:22.433Z,958.2637329
2022-10-26T09:34:23.454Z,958.2658081
2022-10-26T09:35:24.085Z,958.2790527
2022-10-26T09:36:24.459Z,958.3095093
2022-10-26T09:37:24.927Z,958.277832
2022-10-26T09:38:25.367Z,958.3032837
2022-10-26T09:39:25.826Z,958.3059082
2022-10-26T09:40:26.231Z,958.3270874
2022-10-26T09:41:28.337Z,958.3258057
2022-10-26T09:42:27.238Z,958.3682861
2022-10-26T09:43:27.636Z,958.3521729
2022-10-26T09:44:28.970Z,958.3711548
2022-10-26T09:45:29.413Z,958.354126
2022-10-26T09:46:29.915Z,958.385498
2022-10-26T09:47:30.428Z,958.3495483
2022-10-26T09:48:30.853Z,958.3815918
2022-10-26T09:49:32.267Z,958.3534546
2022-10-26T09:50:32.714Z,958.3903198
2022-10-26T09:51:33.202Z,958.3579712
2022-10-26T09:52:33.688Z,958.3457642
2022-10-26T09:53:34.179Z,958.3778076
2022-10-26T09:54:35.468Z,958.4320068
2022-10-26T09:55:35.887Z,958.388916
2022-10-26T09:56:36.379Z,958.4709473
2022-10-26T09:57:36.861Z,958.4283447
2022-10-26T09:58:37.273Z,958.421875
2022-10-26T09:59:37.752Z,958.4375
2022-10-26T10:00:38.742Z,958.4358521
2022-10-26T10:01:42.275Z,958.3998413
2022-10-26T10:02:39.755Z,958.4064331
2022-10-26T10:03:40.147Z,958.3943481
2022-10-26T10:04:41.624Z,958.4106445
2022-10-26T10:05:51.723Z,958.4695435
2022-10-26T10:06:42.585Z,958.4360962
2022-10-26T10:07:43.289Z,958.4519043
2022-10-26T10:09:14.847Z,958.4651489
2022-10-26T10:10:15.326Z,958.4759521
2022-10-26T10:11:15.797Z,958.4508057
2022-10-26T10:12:16.235Z,958.4556274
2022-10-26T10:13:16.758Z,958.4810791
2022-10-26T10:14:17.784Z,958.4927979
2022-10-26T10:15:18.239Z,958.5215454
2022-10-26T10:16:18.704Z,958.5128174
2022-10-26T10:17:19.184Z,958.539856
2022-10-26T10:18:19.787Z,958.5081177
2022-10-26T10:19:20.270Z,958.5346069
2022-10-26T10:20:20.788Z,958.5518799
2022-10-26T10:21:21.291Z,958.5617065
2022-10-26T10:22:21.725Z,958.5175171
2022-10-26T10:23:22.175Z,958.5282593
2022-10-26T10:24:22.782Z,958.5727539
2022-10-26T10:25:23.829Z,958.5982056
2022-10-26T10:26:24.235Z,958.5445557
2022-10-26T10:27:24.692Z,958.5749512
2022-10-26T10:28:25.154Z,958.607666
2022-10-26T10:29:25.680Z,958.6317139
2022-10-26T10:30:26.219Z,958.6055298
2022-10-26T10:31:26.746Z,958.6359253
2022-10-26T10:32:27.235Z,958.6296997
2022-10-26T10:33:27.786Z,958.6132813
2022-10-26T10:34:28.849Z,958.6420288
2022-10-26T10:35:29.321Z,958.6397095
2022-10-26T10:36:29.849Z,958.6374512
2022-10-26T10:37:30.324Z,958.62854
2022-10-26T10:38:30.780Z,958.647522
2022-10-26T10:39:31.208Z,958.6118164
2022-10-26T10:40:31.761Z,958.5953979
2022-10-26T10:41:32.286Z,958.6685791
2022-10-26T10:42:32.805Z,958.7045898
2022-10-26T10:43:33.296Z,958.7107544
2022-10-26T10:44:34.501Z,958.7009277
2022-10-26T10:45:35.045Z,958.7128906
2022-10-26T10:46:35.501Z,958.7335205
2022-10-26T10:47:36.078Z,958.7157593
2022-10-26T10:48:39.289Z,958.7012329
2022-10-26T10:49:36.888Z,958.7143555
2022-10-26T10:50:37.374Z,958.7319336
2022-10-26T10:51:37.971Z,958.6920166
2022-10-26T10:52:38.432Z,958.7410278
2022-10-26T10:53:38.899Z,958.7020264
2022-10-26T10:54:39.955Z,958.7193604
2022-10-26T10:55:40.426Z,958.6989746
2022-10-26T10:56:40.913Z,958.7064819
2022-10-26T10:57:41.415Z,958.7391357
2022-10-26T10:58:41.927Z,958.7859497
2022-10-26T10:59:42.366Z,958.753418
2022-10-26T11:01:13.530Z,958.699707
2022-10-26T11:02:14.195Z,958.7079468
2022-10-26T11:03:14.493Z,958.7349854
2022-10-26T11:05:15.470Z,958.7022705
2022-10-26T11:06:15.950Z,958.6802979
2022-10-26T11:07:16.444Z,958.6933594
2022-10-26T11:08:17.550Z,958.678894
2022-10-26T11:09:18.062Z,958.6624756
2022-10-26T11:10:18.509Z,958.7232666
2022-10-26T11:11:18.969Z,958.687561
2022-10-26T11:12:19.438Z,958.6940918